Time,TemperatureF,DewpointF,PressureIn,WindDirection,WindDirectionDegrees,WindSpeedMPH,WindSpeedGustMPH,Humidity,HourlyPrecipIn,Conditions,Clouds,dailyrainin,SoftwareType,DateUTC
2013-03-02 00:00:00,25.1,16.1,30.29,NNW,342,3.3,5.4,68,0.00,,,0.00,WUHU216HW,2013-03-02 06:00:00,
2013-03-02 00:05:00,24.9,15.9,30.29,North,357,4.0,7.5,68,0.00,,,0.00,WUHU216HW,2013-03-02 06:05:00,
2013-03-02 00:10:00,24.9,15.9,30.29,North,358,3.0,5.6,68,0.00,,,0.00,WUHU216HW,2013-03-02 06:10:00,
2013-03-02 00:15:00,24.9,15.9,30.29,NNE,13,1.9,3.1,68,0.00,,,0.00,WUHU216HW,2013-03-02 06:15:00,
2013-03-02 00:20:00,24.9,16.2,30.29,North,358,2.3,4.6,69,0.00,,,0.00,WUHU216HW,2013-03-02 06:20:00,
2013-03-02 00:25:00,24.9,15.9,30.29,North,353,3.2,6.4,68,0.00,,,0.00,WUHU216HW,2013-03-02 06:25:00,
2013-03-02 00:30:00,24.8,16.1,30.29,North,353,2.9,4.1,69,0.00,,,0.00,WUHU216HW,2013-03-02 06:30:00,
2013-03-02 00:35:00,24.8,16.1,30.29,North,352,2.0,2.9,69,0.00,,,0.00,WUHU216HW,2013-03-02 06:35:00,
2013-03-02 00:40:00,24.9,16.2,30.29,North,353,1.7,3.3,69,0.00,,,0.00,WUHU216HW,2013-03-02 06:40:00,
2013-03-02 00:45:00,25.1,16.4,30.29,NNE,24,2.5,4.1,69,0.00,,,0.00,WUHU216HW,2013-03-02 06:45:00,
2013-03-02 00:50:00,24.9,16.2,30.29,North,11,1.8,2.9,69,0.00,,,0.00,WUHU216HW,2013-03-02 06:50:00,
2013-03-02 00:55:00,24.9,16.2,30.29,North,9,1.1,1.8,69,0.00,,,0.00,WUHU216HW,2013-03-02 06:55:00,
2013-03-02 01:00:00,25.3,16.6,30.29,North,355,1.1,2.3,69,0.00,,,0.00,WUHU216HW,2013-03-02 07:00:00,
2013-03-02 01:05:00,25.3,16.6,30.29,North,11,1.6,3.6,69,0.00,,,0.00,WUHU216HW,2013-03-02 07:05:00,
2013-03-02 01:10:00,24.9,16.2,30.29,NE,51,1.3,3.1,69,0.00,,,0.00,WUHU216HW,2013-03-02 07:10:00,
2013-03-02 01:15:00,24.9,15.9,30.29,North,10,1.5,2.5,68,0.00,,,0.00,WUHU216HW,2013-03-02 07:15:00,
2013-03-02 01:20:00,24.9,15.9,30.29,NNW,334,3.1,6.2,68,0.00,,,0.00,WUHU216HW,2013-03-02 07:20:00,
2013-03-02 01:25:00,24.9,15.9,30.29,NNW,345,2.4,3.1,68,0.00,,,0.00,WUHU216HW,2013-03-02 07:25:00,
2013-03-02 01:30:00,24.9,16.2,30.29,NNW,347,2.2,3.9,69,0.00,,,0.00,WUHU216HW,2013-03-02 07:30:00,
2013-03-02 01:35:00,24.9,16.2,30.29,NNW,348,3.1,3.9,69,0.00,,,0.00,WUHU216HW,2013-03-02 07:35:00,
2013-03-02 01:40:00,24.8,15.8,30.29,North,350,4.0,5.9,68,0.00,,,0.00,WUHU216HW,2013-03-02 07:40:00,
2013-03-02 01:45:00,24.6,16.0,30.29,North,8,1.2,3.9,69,0.00,,,0.00,WUHU216HW,2013-03-02 07:45:00,
2013-03-02 01:50:00,24.6,16.0,30.29,NE,38,0.5,1.3,69,0.00,,,0.00,WUHU216HW,2013-03-02 07:50:00,
2013-03-02 01:55:00,24.8,16.1,30.29,NNE,21,0.9,1.3,69,0.00,,,0.00,WUHU216HW,2013-03-02 07:55:00,
2013-03-02 02:00:00,24.9,16.2,30.29,North,3,2.0,3.1,69,0.00,,,0.00,WUHU216HW,2013-03-02 08:00:00,
2013-03-02 02:05:00,24.9,16.2,30.29,NE,48,1.5,2.1,69,0.00,,,0.00,WUHU216HW,2013-03-02 08:05:00,
2013-03-02 02:10:00,24.8,15.8,30.29,NE,45,0.8,1.8,68,0.00,,,0.00,WUHU216HW,2013-03-02 08:10:00,
2013-03-02 02:15:00,24.8,16.1,30.29,North,6,0.9,1.5,69,0.00,,,0.00,WUHU216HW,2013-03-02 08:15:00,
2013-03-02 02:20:00,24.8,16.1,30.29,North,10,0.6,1.3,69,0.00,,,0.00,WUHU216HW,2013-03-02 08:20:00,
2013-03-02 02:25:00,24.9,16.2,30.28,NNE,29,1.1,1.8,69,0.00,,,0.00,WUHU216HW,2013-03-02 08:25:00,
2013-03-02 02:30:00,24.8,16.1,30.29,NNE,12,0.8,1.8,69,0.00,,,0.00,WUHU216HW,2013-03-02 08:30:00,
2013-03-02 02:35:00,24.8,16.1,30.28,North,4,0.5,1.3,69,0.00,,,0.00,WUHU216HW,2013-03-02 08:35:00,
2013-03-02 02:40:00,24.9,16.2,30.29,NE,42,0.7,1.5,69,0.00,,,0.00,WUHU216HW,2013-03-02 08:40:00,
2013-03-02 02:45:00,24.9,16.2,30.28,NNW,348,0.7,1.3,69,0.00,,,0.00,WUHU216HW,2013-03-02 08:45:00,
2013-03-02 02:50:00,24.9,16.6,30.29,NNW,334,1.2,1.5,70,0.00,,,0.00,WUHU216HW,2013-03-02 08:50:00,
2013-03-02 02:55:00,25.1,16.8,30.29,NNW,340,1.3,2.1,70,0.00,,,0.00,WUHU216HW,2013-03-02 08:55:00,
2013-03-02 03:00:00,25.3,17.0,30.28,NNW,342,1.7,2.9,70,0.00,,,0.00,WUHU216HW,2013-03-02 09:00:00,
2013-03-02 03:05:00,25.3,17.0,30.28,NNW,331,1.6,2.9,70,0.00,,,0.00,WUHU216HW,2013-03-02 09:05:00,
2013-03-02 03:10:00,25.5,17.2,30.28,NNW,346,1.0,1.5,70,0.00,,,0.00,WUHU216HW,2013-03-02 09:10:00,
2013-03-02 03:15:00,25.5,16.8,30.28,NNW,338,2.7,3.3,69,0.00,,,0.00,WUHU216HW,2013-03-02 09:15:00,
2013-03-02 03:20:00,25.1,16.4,30.28,North,353,3.4,4.6,69,0.00,,,0.00,WUHU216HW,2013-03-02 09:20:00,
2013-03-02 03:25:00,24.8,16.1,30.28,North,0,1.5,3.9,69,0.00,,,0.00,WUHU216HW,2013-03-02 09:25:00,
2013-03-02 03:30:00,24.8,15.8,30.28,NNE,23,1.5,3.6,68,0.00,,,0.00,WUHU216HW,2013-03-02 09:30:00,
2013-03-02 03:35:00,24.4,15.8,30.28,NNW,331,3.1,5.6,69,0.00,,,0.00,WUHU216HW,2013-03-02 09:35:00,
2013-03-02 03:40:00,24.2,15.6,30.28,North,350,1.9,3.9,69,0.00,,,0.00,WUHU216HW,2013-03-02 09:40:00,
2013-03-02 03:45:00,24.2,15.2,30.27,NNW,347,1.4,2.3,68,0.00,,,0.00,WUHU216HW,2013-03-02 09:45:00,
2013-03-02 03:50:00,24.2,15.6,30.27,North,359,2.0,3.6,69,0.00,,,0.00,WUHU216HW,2013-03-02 09:50:00,
2013-03-02 03:55:00,24.0,15.4,30.27,NNW,328,2.7,6.2,69,0.00,,,0.00,WUHU216HW,2013-03-02 09:55:00,
2013-03-02 04:00:00,24.0,15.4,30.27,North,354,2.1,3.9,69,0.00,,,0.00,WUHU216HW,2013-03-02 10:00:00,
2013-03-02 04:05:00,24.0,15.4,30.27,North,9,1.7,3.9,69,0.00,,,0.00,WUHU216HW,2013-03-02 10:05:00,
2013-03-02 04:11:00,24.0,15.4,30.27,North,358,1.3,2.3,69,0.00,,,0.00,WUHU216HW,2013-03-02 10:11:00,
2013-03-02 04:16:00,24.0,15.4,30.27,NNE,13,2.5,3.1,69,0.00,,,0.00,WUHU216HW,2013-03-02 10:16:00,
2013-03-02 04:21:00,24.0,15.4,30.27,North,353,1.1,2.3,69,0.00,,,0.00,WUHU216HW,2013-03-02 10:21:00,
2013-03-02 04:26:00,24.2,15.6,30.27,North,356,1.5,2.5,69,0.00,,,0.00,WUHU216HW,2013-03-02 10:26:00,
2013-03-02 04:31:00,24.2,15.6,30.27,NNW,345,0.6,1.3,69,0.00,,,0.00,WUHU216HW,2013-03-02 10:31:00,
2013-03-02 04:36:00,24.6,16.3,30.27,NNW,329,0.9,2.1,70,0.00,,,0.00,WUHU216HW,2013-03-02 10:36:00,
2013-03-02 04:42:00,24.8,16.1,30.28,North,350,1.2,2.1,69,0.00,,,0.00,WUHU216HW,2013-03-02 10:42:00,
2013-03-02 04:47:00,24.8,16.1,30.28,NW,320,1.8,2.9,69,0.00,,,0.00,WUHU216HW,2013-03-02 10:47:00,
2013-03-02 04:52:00,24.8,16.1,30.29,NNW,337,1.6,2.9,69,0.00,,,0.00,WUHU216HW,2013-03-02 10:52:00,
2013-03-02 04:57:00,24.6,16.0,30.28,NNW,338,1.5,2.9,69,0.00,,,0.00,WUHU216HW,2013-03-02 10:57:00,
2013-03-02 05:02:00,24.4,15.8,30.28,NNW,335,2.2,2.9,69,0.00,,,0.00,WUHU216HW,2013-03-02 11:02:00,
2013-03-02 05:07:00,24.4,15.8,30.28,NW,326,2.3,4.1,69,0.00,,,0.00,WUHU216HW,2013-03-02 11:07:00,
2013-03-02 05:12:00,24.2,15.6,30.28,NNW,337,2.7,3.9,69,0.00,,,0.00,WUHU216HW,2013-03-02 11:12:00,
2013-03-02 05:17:00,24.2,15.6,30.28,NNW,330,1.2,2.5,69,0.00,,,0.00,WUHU216HW,2013-03-02 11:17:00,
2013-03-02 05:22:00,24.2,15.6,30.28,North,9,0.8,1.5,69,0.00,,,0.00,WUHU216HW,2013-03-02 11:22:00,
2013-03-02 05:27:00,24.2,15.6,30.29,NNW,328,0.7,1.0,69,0.00,,,0.00,WUHU216HW,2013-03-02 11:27:00,
2013-03-02 05:32:00,24.2,15.6,30.28,NNW,336,1.2,2.3,69,0.00,,,0.00,WUHU216HW,2013-03-02 11:32:00,
2013-03-02 05:37:00,24.2,15.6,30.29,North,355,1.4,2.1,69,0.00,,,0.00,WUHU216HW,2013-03-02 11:37:00,
2013-03-02 05:42:00,24.2,15.6,30.29,North,354,3.3,4.6,69,0.00,,,0.00,WUHU216HW,2013-03-02 11:42:00,
2013-03-02 05:47:00,23.9,15.3,30.29,North,349,1.8,4.6,69,0.00,,,0.00,WUHU216HW,2013-03-02 11:47:00,
2013-03-02 05:52:00,24.2,15.6,30.29,North,351,1.9,2.3,69,0.00,,,0.00,WUHU216HW,2013-03-02 11:52:00,
2013-03-02 05:57:00,24.2,15.6,30.29,NW,325,2.2,3.6,69,0.00,,,0.00,WUHU216HW,2013-03-02 11:57:00,
2013-03-02 06:02:00,24.4,15.8,30.29,NW,307,1.9,3.3,69,0.00,,,0.00,WUHU216HW,2013-03-02 12:02:00,
2013-03-02 06:07:00,24.2,15.6,30.29,NNW,342,2.5,4.6,69,0.00,,,0.00,WUHU216HW,2013-03-02 12:07:00,
2013-03-02 06:12:00,24.0,15.4,30.29,NNW,336,2.6,5.6,69,0.00,,,0.00,WUHU216HW,2013-03-02 12:12:00,
2013-03-02 06:17:00,23.7,15.1,30.29,NNW,345,1.3,2.1,69,0.00,,,0.00,WUHU216HW,2013-03-02 12:17:00,
2013-03-02 06:22:00,23.7,15.4,30.29,NW,324,1.1,1.8,70,0.00,,,0.00,WUHU216HW,2013-03-02 12:22:00,
2013-03-02 06:27:00,23.9,15.6,30.29,NW,322,1.6,2.9,70,0.00,,,0.00,WUHU216HW,2013-03-02 12:27:00,
2013-03-02 06:32:00,23.9,15.6,30.29,NNW,329,1.7,2.3,70,0.00,,,0.00,WUHU216HW,2013-03-02 12:32:00,
2013-03-02 06:37:00,23.7,15.4,30.28,NNW,329,1.1,2.1,70,0.00,,,0.00,WUHU216HW,2013-03-02 12:37:00,
2013-03-02 06:42:00,23.5,15.2,30.28,North,358,1.9,2.9,70,0.00,,,0.00,WUHU216HW,2013-03-02 12:42:00,
2013-03-02 06:47:00,23.3,15.0,30.28,NNW,343,1.4,2.5,70,0.00,,,0.00,WUHU216HW,2013-03-02 12:47:00,
2013-03-02 06:52:00,23.5,15.2,30.28,North,353,1.7,2.3,70,0.00,,,0.00,WUHU216HW,2013-03-02 12:52:00,
2013-03-02 06:57:00,23.5,15.2,30.28,North,354,0.7,1.3,70,0.00,,,0.00,WUHU216HW,2013-03-02 12:57:00,
2013-03-02 07:02:00,23.5,15.2,30.28,NW,321,1.6,2.3,70,0.00,,,0.00,WUHU216HW,2013-03-02 13:02:00,
2013-03-02 07:07:00,23.7,15.7,30.28,NW,323,1.0,2.3,71,0.00,,,0.00,WUHU216HW,2013-03-02 13:07:00,
2013-03-02 07:12:00,23.7,15.4,30.29,NNW,338,0.7,1.3,70,0.00,,,0.00,WUHU216HW,2013-03-02 13:12:00,
2013-03-02 07:17:00,23.5,15.2,30.29,NNW,338,0.9,1.3,70,0.00,,,0.00,WUHU216HW,2013-03-02 13:17:00,
2013-03-02 07:22:00,23.7,15.4,30.29,NNW,331,0.9,1.5,70,0.00,,,0.00,WUHU216HW,2013-03-02 13:22:00,
2013-03-02 07:27:00,23.7,15.4,30.29,WNW,294,1.0,1.5,70,0.00,,,0.00,WUHU216HW,2013-03-02 13:27:00,
2013-03-02 07:32:00,23.7,15.4,30.28,WNW,300,1.3,2.3,70,0.00,,,0.00,WUHU216HW,2013-03-02 13:32:00,
2013-03-02 07:37:00,23.9,15.6,30.28,NNW,335,1.9,2.5,70,0.00,,,0.00,WUHU216HW,2013-03-02 13:37:00,
2013-03-02 07:42:00,23.7,15.4,30.28,NW,312,1.6,2.3,70,0.00,,,0.00,WUHU216HW,2013-03-02 13:42:00,
2013-03-02 07:47:00,23.5,15.2,30.29,North,351,2.2,3.6,70,0.00,,,0.00,WUHU216HW,2013-03-02 13:47:00,
2013-03-02 07:52:00,23.3,15.0,30.28,North,0,1.4,2.1,70,0.00,,,0.00,WUHU216HW,2013-03-02 13:52:00,
2013-03-02 07:57:00,23.1,14.8,30.28,NNW,343,1.1,1.8,70,0.00,,,0.00,WUHU216HW,2013-03-02 13:57:00,
2013-03-02 08:02:00,23.1,15.2,30.29,North,357,0.8,1.3,71,0.00,,,0.00,WUHU216HW,2013-03-02 14:02:00,
2013-03-02 08:07:00,23.1,15.2,30.29,NNW,344,2.2,2.9,71,0.00,,,0.00,WUHU216HW,2013-03-02 14:07:00,
2013-03-02 08:12:00,23.1,15.2,30.29,NNW,345,1.1,2.5,71,0.00,,,0.00,WUHU216HW,2013-03-02 14:12:00,
2013-03-02 08:17:00,23.5,15.5,30.29,NW,316,0.5,0.8,71,0.00,,,0.00,WUHU216HW,2013-03-02 14:17:00,
2013-03-02 08:22:00,23.9,15.9,30.29,NW,316,1.2,1.5,71,0.00,,,0.00,WUHU216HW,2013-03-02 14:22:00,
2013-03-02 08:27:00,24.0,15.7,30.29,NNW,343,1.4,2.3,70,0.00,,,0.00,WUHU216HW,2013-03-02 14:27:00,
2013-03-02 08:32:00,23.9,15.3,30.29,NW,316,2.8,4.4,69,0.00,,,0.00,WUHU216HW,2013-03-02 14:32:00,
2013-03-02 08:37:00,24.2,15.6,30.29,North,2,0.9,2.1,69,0.00,,,0.00,WUHU216HW,2013-03-02 14:37:00,
2013-03-02 08:42:00,24.2,15.9,30.29,NNW,334,1.4,2.1,70,0.00,,,0.00,WUHU216HW,2013-03-02 14:42:00,
2013-03-02 08:47:00,24.6,16.0,30.29,NNW,330,2.1,4.4,69,0.00,,,0.00,WUHU216HW,2013-03-02 14:47:00,
2013-03-02 08:52:00,24.6,15.6,30.29,NNW,334,3.6,5.9,68,0.00,,,0.00,WUHU216HW,2013-03-02 14:52:00,
2013-03-02 08:57:00,24.4,15.8,30.29,NW,321,2.8,4.1,69,0.00,,,0.00,WUHU216HW,2013-03-02 14:57:00,
2013-03-02 09:02:00,24.4,15.8,30.29,NNW,338,2.9,4.9,69,0.00,,,0.00,WUHU216HW,2013-03-02 15:02:00,
2013-03-02 09:07:00,24.9,16.6,30.29,NNW,328,2.1,4.4,70,0.00,,,0.00,WUHU216HW,2013-03-02 15:07:00,
2013-03-02 09:12:00,25.8,17.4,30.29,WNW,298,2.9,5.4,70,0.00,,,0.00,WUHU216HW,2013-03-02 15:12:00,
2013-03-02 09:17:00,26.4,18.0,30.28,NNW,334,1.9,3.3,70,0.00,,,0.00,WUHU216HW,2013-03-02 15:17:00,
2013-03-02 09:22:00,26.9,18.5,30.28,West,276,2.0,3.1,70,0.00,,,0.00,WUHU216HW,2013-03-02 15:22:00,
2013-03-02 09:27:00,26.7,17.0,30.28,NNW,333,3.3,5.6,66,0.00,,,0.00,WUHU216HW,2013-03-02 15:27:00,
2013-03-02 09:32:00,26.6,17.5,30.28,WNW,297,1.2,2.9,68,0.00,,,0.00,WUHU216HW,2013-03-02 15:32:00,
2013-03-02 09:37:00,26.7,17.3,30.29,NW,324,2.5,2.9,67,0.00,,,0.00,WUHU216HW,2013-03-02 15:37:00,
2013-03-02 09:42:00,26.6,17.5,30.29,WNW,302,2.3,3.9,68,0.00,,,0.00,WUHU216HW,2013-03-02 15:42:00,
2013-03-02 09:47:00,26.7,17.3,30.29,NNW,337,2.8,5.9,67,0.00,,,0.00,WUHU216HW,2013-03-02 15:47:00,
2013-03-02 09:52:00,26.7,17.3,30.29,North,351,1.8,3.3,67,0.00,,,0.00,WUHU216HW,2013-03-02 15:52:00,
2013-03-02 09:57:00,27.1,18.0,30.28,SW,228,1.3,2.1,68,0.00,,,0.00,WUHU216HW,2013-03-02 15:57:00,
2013-03-02 10:02:00,27.1,17.7,30.27,North,1,1.6,2.9,67,0.00,,,0.00,WUHU216HW,2013-03-02 16:02:00,
2013-03-02 10:07:00,27.1,17.7,30.28,NNE,24,1.6,2.9,67,0.00,,,0.00,WUHU216HW,2013-03-02 16:07:00,
2013-03-02 10:12:00,27.3,17.9,30.27,NW,313,2.3,3.9,67,0.00,,,0.00,WUHU216HW,2013-03-02 16:12:00,
2013-03-02 10:17:00,27.6,18.2,30.27,South,182,1.6,2.9,67,0.00,,,0.00,WUHU216HW,2013-03-02 16:17:00,
2013-03-02 10:22:00,27.8,18.4,30.26,NNW,332,2.2,3.9,67,0.00,,,0.00,WUHU216HW,2013-03-02 16:22:00,
2013-03-02 10:27:00,27.8,18.0,30.26,NE,42,0.8,2.5,66,0.00,,,0.00,WUHU216HW,2013-03-02 16:27:00,
2013-03-02 10:32:00,27.8,18.0,30.26,ESE,105,2.5,4.1,66,0.00,,,0.00,WUHU216HW,2013-03-02 16:32:00,
2013-03-02 10:37:00,28.0,18.2,30.26,SW,214,2.2,3.9,66,0.00,,,0.00,WUHU216HW,2013-03-02 16:37:00,
2013-03-02 10:42:00,28.4,18.6,30.26,South,172,2.7,3.9,66,0.00,,,0.00,WUHU216HW,2013-03-02 16:42:00,
2013-03-02 10:47:00,29.1,19.6,30.25,SW,215,1.8,3.1,67,0.00,,,0.00,WUHU216HW,2013-03-02 16:47:00,
2013-03-02 10:52:00,29.3,19.5,30.25,ESE,122,3.4,4.4,66,0.00,,,0.00,WUHU216HW,2013-03-02 16:52:00,
2013-03-02 10:57:00,29.4,19.5,30.25,SSE,158,3.7,5.4,66,0.00,,,0.00,WUHU216HW,2013-03-02 16:57:00,
2013-03-02 11:02:00,29.4,19.5,30.24,SSE,165,2.0,4.6,66,0.00,,,0.00,WUHU216HW,2013-03-02 17:02:00,
2013-03-02 11:07:00,29.6,19.4,30.24,SSE,151,2.5,5.4,65,0.00,,,0.00,WUHU216HW,2013-03-02 17:07:00,
2013-03-02 11:12:00,30.0,20.1,30.25,SW,236,2.1,3.9,66,0.00,,,0.00,WUHU216HW,2013-03-02 17:12:00,
2013-03-02 11:17:00,30.4,20.4,30.24,SSW,192,2.7,5.9,66,0.00,,,0.00,WUHU216HW,2013-03-02 17:17:00,
2013-03-02 11:22:00,30.6,20.2,30.24,South,169,2.7,4.6,65,0.00,,,0.00,WUHU216HW,2013-03-02 17:22:00,
2013-03-02 11:27:00,30.8,20.4,30.25,SSE,157,2.0,3.1,65,0.00,,,0.00,WUHU216HW,2013-03-02 17:27:00,
2013-03-02 11:32:00,31.0,20.6,30.25,SSW,212,2.8,5.4,65,0.00,,,0.00,WUHU216HW,2013-03-02 17:32:00,
2013-03-02 11:37:00,31.2,20.8,30.25,WSW,252,1.8,2.1,65,0.00,,,0.00,WUHU216HW,2013-03-02 17:37:00,
2013-03-02 11:42:00,31.5,21.1,30.25,SW,214,2.7,3.9,65,0.00,,,0.00,WUHU216HW,2013-03-02 17:42:00,
2013-03-02 11:47:00,31.9,21.1,30.24,WSW,256,2.2,3.9,64,0.00,,,0.00,WUHU216HW,2013-03-02 17:47:00,
2013-03-02 11:52:00,32.1,20.6,30.24,NW,305,3.0,4.1,62,0.00,,,0.00,WUHU216HW,2013-03-02 17:52:00,
2013-03-02 11:57:00,31.7,20.2,30.24,NNW,333,2.1,2.9,62,0.00,,,0.00,WUHU216HW,2013-03-02 17:57:00,
2013-03-02 12:02:00,31.9,20.4,30.24,NW,317,1.7,3.3,62,0.00,,,0.00,WUHU216HW,2013-03-02 18:02:00,
2013-03-02 12:07:00,32.2,20.7,30.24,West,277,2.4,3.3,62,0.00,,,0.00,WUHU216HW,2013-03-02 18:07:00,
2013-03-02 12:12:00,32.6,21.0,30.23,West,262,0.9,2.3,62,0.00,,,0.00,WUHU216HW,2013-03-02 18:12:00,
2013-03-02 12:17:00,33.0,21.4,30.23,WSW,252,2.3,3.1,62,0.00,,,0.00,WUHU216HW,2013-03-02 18:17:00,
2013-03-02 12:22:00,33.3,21.7,30.23,NW,311,1.4,3.1,62,0.00,,,0.00,WUHU216HW,2013-03-02 18:22:00,
2013-03-02 12:27:00,33.3,21.7,30.23,SSE,161,2.1,3.9,62,0.00,,,0.00,WUHU216HW,2013-03-02 18:27:00,
2013-03-02 12:32:00,33.7,22.1,30.23,SW,216,3.3,3.9,62,0.00,,,0.00,WUHU216HW,2013-03-02 18:32:00,
2013-03-02 12:37:00,33.9,21.5,30.24,NW,312,2.1,4.1,60,0.00,,,0.00,WUHU216HW,2013-03-02 18:37:00,
2013-03-02 12:42:00,34.0,22.0,30.23,West,273,2.8,3.9,61,0.00,,,0.00,WUHU216HW,2013-03-02 18:42:00,
2013-03-02 12:47:00,33.9,21.5,30.22,North,11,1.3,2.9,60,0.00,,,0.00,WUHU216HW,2013-03-02 18:47:00,
2013-03-02 12:52:00,33.7,21.3,30.22,SSE,161,3.9,6.2,60,0.00,,,0.00,WUHU216HW,2013-03-02 18:52:00,
2013-03-02 12:57:00,33.9,21.9,30.21,South,172,1.6,3.1,61,0.00,,,0.00,WUHU216HW,2013-03-02 18:57:00,
2013-03-02 13:02:00,33.9,21.9,30.22,South,178,2.1,4.4,61,0.00,,,0.00,WUHU216HW,2013-03-02 19:02:00,
2013-03-02 13:07:00,34.2,22.2,30.21,SSE,165,3.8,6.4,61,0.00,,,0.00,WUHU216HW,2013-03-02 19:07:00,
2013-03-02 13:12:00,34.2,21.8,30.21,SSE,149,3.3,6.4,60,0.00,,,0.00,WUHU216HW,2013-03-02 19:12:00,
2013-03-02 13:17:00,34.4,22.0,30.20,South,184,4.4,7.2,60,0.00,,,0.00,WUHU216HW,2013-03-02 19:17:00,
2013-03-02 13:22:00,34.4,22.4,30.20,SSW,196,6.2,7.2,61,0.00,,,0.00,WUHU216HW,2013-03-02 19:22:00,
2013-03-02 13:27:00,34.9,22.4,30.19,SSE,167,4.5,6.7,60,0.00,,,0.00,WUHU216HW,2013-03-02 19:27:00,
2013-03-02 13:32:00,34.8,21.9,30.19,SE,144,2.4,4.6,59,0.00,,,0.00,WUHU216HW,2013-03-02 19:32:00,
2013-03-02 13:37:00,34.4,21.6,30.19,SSW,193,2.7,4.1,59,0.00,,,0.00,WUHU216HW,2013-03-02 19:37:00,
2013-03-02 13:42:00,34.6,21.8,30.18,South,170,3.7,5.6,59,0.00,,,0.00,WUHU216HW,2013-03-02 19:42:00,
2013-03-02 13:47:00,35.1,22.6,30.19,South,174,4.2,6.4,60,0.00,,,0.00,WUHU216HW,2013-03-02 19:47:00,
2013-03-02 13:52:00,35.5,23.0,30.18,SSE,158,3.7,5.4,60,0.00,,,0.00,WUHU216HW,2013-03-02 19:52:00,
2013-03-02 13:57:00,35.8,23.3,30.19,South,175,4.7,5.9,60,0.00,,,0.00,WUHU216HW,2013-03-02 19:57:00,
2013-03-02 14:02:00,35.8,23.3,30.18,South,181,3.9,5.9,60,0.00,,,0.00,WUHU216HW,2013-03-02 20:02:00,
2013-03-02 14:07:00,36.2,23.7,30.18,SSE,152,2.9,3.9,60,0.00,,,0.00,WUHU216HW,2013-03-02 20:07:00,
2013-03-02 14:12:00,36.0,23.1,30.18,SSE,148,3.1,3.9,59,0.00,,,0.00,WUHU216HW,2013-03-02 20:12:00,
2013-03-02 14:17:00,36.2,23.7,30.18,South,190,3.2,4.9,60,0.00,,,0.00,WUHU216HW,2013-03-02 20:17:00,
2013-03-02 14:22:00,36.2,23.3,30.19,SSE,153,2.7,4.9,59,0.00,,,0.00,WUHU216HW,2013-03-02 20:22:00,
2013-03-02 14:27:00,36.4,23.5,30.19,SSE,160,2.8,4.9,59,0.00,,,0.00,WUHU216HW,2013-03-02 20:27:00,
2013-03-02 14:32:00,36.4,23.5,30.19,SSE,164,2.3,3.9,59,0.00,,,0.00,WUHU216HW,2013-03-02 20:32:00,
2013-03-02 14:37:00,36.2,23.3,30.18,SSE,149,2.5,3.6,59,0.00,,,0.00,WUHU216HW,2013-03-02 20:37:00,
2013-03-02 14:42:00,36.4,23.5,30.18,South,187,3.6,5.6,59,0.00,,,0.00,WUHU216HW,2013-03-02 20:42:00,
2013-03-02 14:47:00,36.6,23.6,30.17,WSW,244,2.5,4.6,59,0.00,,,0.00,WUHU216HW,2013-03-02 20:47:00,
2013-03-02 14:52:00,36.6,23.6,30.16,SSE,168,3.9,5.2,59,0.00,,,0.00,WUHU216HW,2013-03-02 20:52:00,
2013-03-02 14:57:00,36.6,23.2,30.16,SSE,160,5.4,7.9,58,0.00,,,0.00,WUHU216HW,2013-03-02 20:57:00,
2013-03-02 15:02:00,36.6,23.6,30.16,South,182,4.3,4.9,59,0.00,,,0.00,WUHU216HW,2013-03-02 21:02:00,
2013-03-02 15:07:00,36.4,23.5,30.16,SE,146,3.9,5.9,59,0.00,,,0.00,WUHU216HW,2013-03-02 21:07:00,
2013-03-02 15:12:00,36.0,22.7,30.17,SE,139,2.6,4.1,58,0.00,,,0.00,WUHU216HW,2013-03-02 21:12:00,
2013-03-02 15:17:00,35.7,22.8,30.17,SSE,155,3.8,5.9,59,0.00,,,0.00,WUHU216HW,2013-03-02 21:17:00,
2013-03-02 15:22:00,35.5,22.6,30.16,SSE,157,3.3,5.4,59,0.00,,,0.00,WUHU216HW,2013-03-02 21:22:00,
2013-03-02 15:27:00,35.7,23.2,30.17,SSE,163,4.2,7.2,60,0.00,,,0.00,WUHU216HW,2013-03-02 21:27:00,
2013-03-02 15:32:00,35.8,23.3,30.16,SSE,165,3.7,5.6,60,0.00,,,0.00,WUHU216HW,2013-03-02 21:32:00,
2013-03-02 15:37:00,35.8,23.3,30.16,SSE,162,3.9,5.9,60,0.00,,,0.00,WUHU216HW,2013-03-02 21:37:00,
2013-03-02 15:42:00,35.8,23.3,30.16,SSE,164,3.5,4.6,60,0.00,,,0.00,WUHU216HW,2013-03-02 21:42:00,
2013-03-02 15:47:00,36.0,23.5,30.16,SSE,167,3.7,6.4,60,0.00,,,0.00,WUHU216HW,2013-03-02 21:47:00,
2013-03-02 15:52:00,35.8,22.9,30.15,SSE,151,3.4,5.4,59,0.00,,,0.00,WUHU216HW,2013-03-02 21:52:00,
2013-03-02 15:57:00,35.5,22.6,30.15,SSE,147,3.9,6.2,59,0.00,,,0.00,WUHU216HW,2013-03-02 21:57:00,
2013-03-02 16:02:00,35.1,21.8,30.15,SE,128,4.5,6.4,58,0.00,,,0.00,WUHU216HW,2013-03-02 22:02:00,
2013-03-02 16:07:00,35.3,22.0,30.15,SE,142,3.1,4.4,58,0.00,,,0.00,WUHU216HW,2013-03-02 22:07:00,
2013-03-02 16:12:00,35.7,22.8,30.15,SSE,161,3.3,4.6,59,0.00,,,0.00,WUHU216HW,2013-03-02 22:12:00,
2013-03-02 16:17:00,36.0,23.1,30.16,SSE,149,4.4,5.9,59,0.00,,,0.00,WUHU216HW,2013-03-02 22:17:00,
2013-03-02 16:22:00,36.0,23.1,30.16,SSE,157,4.4,6.9,59,0.00,,,0.00,WUHU216HW,2013-03-02 22:22:00,
2013-03-02 16:27:00,36.0,23.5,30.16,SSE,154,4.4,5.4,60,0.00,,,0.00,WUHU216HW,2013-03-02 22:27:00,
2013-03-02 16:32:00,35.8,23.3,30.16,SSE,164,4.1,5.6,60,0.00,,,0.00,WUHU216HW,2013-03-02 22:32:00,
2013-03-02 16:37:00,35.8,23.3,30.15,SSE,147,3.4,4.4,60,0.00,,,0.00,WUHU216HW,2013-03-02 22:37:00,
2013-03-02 16:42:00,35.5,23.0,30.15,SSE,162,3.9,4.9,60,0.00,,,0.00,WUHU216HW,2013-03-02 22:42:00,
2013-03-02 16:47:00,35.3,22.8,30.15,SSE,161,3.7,4.6,60,0.00,,,0.00,WUHU216HW,2013-03-02 22:47:00,
2013-03-02 16:52:00,35.3,22.8,30.15,South,170,3.3,5.4,60,0.00,,,0.00,WUHU216HW,2013-03-02 22:52:00,
2013-03-02 16:57:00,35.3,22.8,30.15,SSE,160,3.3,4.4,60,0.00,,,0.00,WUHU216HW,2013-03-02 22:57:00,
2013-03-02 17:02:00,35.3,22.8,30.14,SSE,167,3.2,3.9,60,0.00,,,0.00,WUHU216HW,2013-03-02 23:02:00,
2013-03-02 17:07:00,35.1,22.6,30.14,SE,142,4.1,5.4,60,0.00,,,0.00,WUHU216HW,2013-03-02 23:07:00,
2013-03-02 17:12:00,34.8,22.7,30.14,SE,130,2.7,4.4,61,0.00,,,0.00,WUHU216HW,2013-03-02 23:12:00,
2013-03-02 17:17:00,34.4,22.4,30.14,ESE,115,3.9,6.7,61,0.00,,,0.00,WUHU216HW,2013-03-02 23:17:00,
2013-03-02 17:22:00,34.2,22.2,30.14,SE,126,3.4,5.9,61,0.00,,,0.00,WUHU216HW,2013-03-02 23:22:00,
2013-03-02 17:27:00,34.0,22.4,30.13,SE,144,4.4,5.4,62,0.00,,,0.00,WUHU216HW,2013-03-02 23:27:00,
2013-03-02 17:32:00,33.7,22.1,30.14,ESE,120,3.6,5.4,62,0.00,,,0.00,WUHU216HW,2013-03-02 23:32:00,
2013-03-02 17:37:00,33.7,22.1,30.14,SE,127,2.7,3.9,62,0.00,,,0.00,WUHU216HW,2013-03-02 23:37:00,
2013-03-02 17:42:00,33.7,22.1,30.14,SE,127,3.6,4.6,62,0.00,,,0.00,WUHU216HW,2013-03-02 23:42:00,
2013-03-02 17:47:00,33.7,22.5,30.13,ESE,121,3.9,5.2,63,0.00,,,0.00,WUHU216HW,2013-03-02 23:47:00,
2013-03-02 17:52:00,33.3,22.1,30.13,SE,128,4.4,5.4,63,0.00,,,0.00,WUHU216HW,2013-03-02 23:52:00,
2013-03-02 17:57:00,33.3,22.1,30.13,ESE,117,2.5,3.9,63,0.00,,,0.00,WUHU216HW,2013-03-02 23:57:00,
2013-03-02 18:02:00,33.3,22.1,30.13,SE,131,3.3,4.1,63,0.00,,,0.00,WUHU216HW,2013-03-03 00:02:00,
2013-03-02 18:07:00,33.3,22.5,30.13,SE,129,3.6,4.6,64,0.00,,,0.00,WUHU216HW,2013-03-03 00:07:00,
2013-03-02 18:12:00,33.1,22.3,30.12,SE,125,3.1,4.4,64,0.00,,,0.00,WUHU216HW,2013-03-03 00:12:00,
2013-03-02 18:17:00,33.1,22.3,30.12,ESE,107,4.0,4.9,64,0.00,,,0.00,WUHU216HW,2013-03-03 00:17:00,
2013-03-02 18:22:00,33.0,22.2,30.12,SE,130,3.1,4.9,64,0.00,,,0.00,WUHU216HW,2013-03-03 00:22:00,
2013-03-02 18:27:00,33.0,22.2,30.12,SE,127,3.7,5.6,64,0.00,,,0.00,WUHU216HW,2013-03-03 00:27:00,
2013-03-02 18:32:00,32.8,22.4,30.12,SE,141,4.1,6.4,65,0.00,,,0.00,WUHU216HW,2013-03-03 00:32:00,
2013-03-02 18:37:00,32.8,22.0,30.12,SE,128,4.5,6.2,64,0.00,,,0.00,WUHU216HW,2013-03-03 00:37:00,
2013-03-02 18:42:00,32.8,22.0,30.12,SE,143,3.6,4.6,64,0.00,,,0.00,WUHU216HW,2013-03-03 00:42:00,
2013-03-02 18:47:00,32.6,21.8,30.12,ESE,114,3.6,5.4,64,0.00,,,0.00,WUHU216HW,2013-03-03 00:47:00,
2013-03-02 18:52:00,32.6,21.8,30.12,SE,136,3.6,5.9,64,0.00,,,0.00,WUHU216HW,2013-03-03 00:52:00,
2013-03-02 18:57:00,32.6,22.2,30.12,SE,137,3.8,5.4,65,0.00,,,0.00,WUHU216HW,2013-03-03 00:57:00,
2013-03-02 19:02:00,32.6,22.2,30.12,SE,144,3.7,5.4,65,0.00,,,0.00,WUHU216HW,2013-03-03 01:02:00,
2013-03-02 19:07:00,32.6,22.2,30.12,SE,142,4.1,5.9,65,0.00,,,0.00,WUHU216HW,2013-03-03 01:07:00,
2013-03-02 19:12:00,32.6,22.2,30.11,SE,133,3.5,4.6,65,0.00,,,0.00,WUHU216HW,2013-03-03 01:12:00,
2013-03-02 19:17:00,32.6,22.5,30.11,SE,126,3.1,4.1,66,0.00,,,0.00,WUHU216HW,2013-03-03 01:17:00,
2013-03-02 19:22:00,32.6,22.5,30.11,ESE,118,3.7,4.9,66,0.00,,,0.00,WUHU216HW,2013-03-03 01:22:00,
2013-03-02 19:27:00,32.6,22.5,30.11,ESE,119,3.0,3.9,66,0.00,,,0.00,WUHU216HW,2013-03-03 01:27:00,
2013-03-02 19:32:00,32.6,22.5,30.11,SE,128,2.9,4.6,66,0.00,,,0.00,WUHU216HW,2013-03-03 01:32:00,
2013-03-02 19:37:00,32.4,22.3,30.11,SE,144,2.9,4.4,66,0.00,,,0.00,WUHU216HW,2013-03-03 01:37:00,
2013-03-02 19:42:00,32.4,22.7,30.11,SE,138,2.9,4.6,67,0.00,,,0.00,WUHU216HW,2013-03-03 01:42:00,
2013-03-02 19:47:00,32.2,22.5,30.11,SSE,148,3.7,4.6,67,0.00,,,0.00,WUHU216HW,2013-03-03 01:47:00,
2013-03-02 19:52:00,32.2,22.5,30.11,SE,126,2.9,4.9,67,0.00,,,0.00,WUHU216HW,2013-03-03 01:52:00,
2013-03-02 19:58:00,32.2,22.1,30.11,SE,139,3.3,4.6,66,0.00,,,0.00,WUHU216HW,2013-03-03 01:58:00,
2013-03-02 20:03:00,32.2,22.1,30.10,SE,134,3.2,4.1,66,0.00,,,0.00,WUHU216HW,2013-03-03 02:03:00,
2013-03-02 20:08:00,32.1,22.4,30.10,SE,144,3.0,4.4,67,0.00,,,0.00,WUHU216HW,2013-03-03 02:08:00,
2013-03-02 20:13:00,32.1,22.4,30.11,SSE,151,3.9,5.2,67,0.00,,,0.00,WUHU216HW,2013-03-03 02:13:00,
2013-03-02 20:18:00,32.1,22.4,30.10,SSE,149,4.8,7.7,67,0.00,,,0.00,WUHU216HW,2013-03-03 02:18:00,
2013-03-02 20:23:00,32.1,22.8,30.10,SSE,159,4.6,6.4,68,0.00,,,0.00,WUHU216HW,2013-03-03 02:23:00,
2013-03-02 20:28:00,32.1,22.8,30.10,SE,145,3.7,4.4,68,0.00,,,0.00,WUHU216HW,2013-03-03 02:28:00,
2013-03-02 20:33:00,32.1,22.8,30.10,SE,138,3.5,4.1,68,0.00,,,0.00,WUHU216HW,2013-03-03 02:33:00,
2013-03-02 20:38:00,32.2,22.9,30.10,SE,137,3.6,7.2,68,0.00,,,0.00,WUHU216HW,2013-03-03 02:38:00,
2013-03-02 20:43:00,32.2,22.9,30.10,SE,141,3.8,7.9,68,0.00,,,0.00,WUHU216HW,2013-03-03 02:43:00,
2013-03-02 20:48:00,32.2,22.9,30.10,SE,140,4.1,4.6,68,0.00,,,0.00,WUHU216HW,2013-03-03 02:48:00,
2013-03-02 20:53:00,32.1,22.8,30.10,SE,139,2.8,4.6,68,0.00,,,0.00,WUHU216HW,2013-03-03 02:53:00,
2013-03-02 20:58:00,32.1,22.8,30.10,SE,146,2.7,3.9,68,0.00,,,0.00,WUHU216HW,2013-03-03 02:58:00,
2013-03-02 21:03:00,32.1,22.8,30.10,SSE,161,2.8,3.3,68,0.00,,,0.00,WUHU216HW,2013-03-03 03:03:00,
2013-03-02 21:08:00,32.1,22.8,30.09,SE,144,2.9,6.2,68,0.00,,,0.00,WUHU216HW,2013-03-03 03:08:00,
2013-03-02 21:13:00,32.1,22.8,30.09,SE,145,2.1,4.1,68,0.00,,,0.00,WUHU216HW,2013-03-03 03:13:00,
2013-03-02 21:18:00,32.1,22.8,30.09,SSE,150,3.1,4.6,68,0.00,,,0.00,WUHU216HW,2013-03-03 03:18:00,
2013-03-02 21:23:00,31.9,22.2,30.09,SSE,148,3.5,4.1,67,0.00,,,0.00,WUHU216HW,2013-03-03 03:23:00,
2013-03-02 21:28:00,31.9,22.2,30.09,SSE,149,3.3,4.9,67,0.00,,,0.00,WUHU216HW,2013-03-03 03:28:00,
2013-03-02 21:33:00,31.7,22.0,30.09,SSE,148,3.1,5.2,67,0.00,,,0.00,WUHU216HW,2013-03-03 03:33:00,
2013-03-02 21:38:00,31.7,22.0,30.09,SE,145,4.1,4.9,67,0.00,,,0.00,WUHU216HW,2013-03-03 03:38:00,
2013-03-02 21:43:00,31.7,22.4,30.09,SE,130,2.6,3.6,68,0.00,,,0.00,WUHU216HW,2013-03-03 03:43:00,
2013-03-02 21:48:00,32.2,23.5,30.09,SSE,150,3.2,3.9,70,0.00,,,0.00,WUHU216HW,2013-03-03 03:48:00,
2013-03-02 21:53:00,32.2,23.5,30.09,SE,128,3.9,4.9,70,0.00,,,0.00,WUHU216HW,2013-03-03 03:53:00,
2013-03-02 21:58:00,32.2,23.5,30.08,SE,133,4.1,5.4,70,0.00,,,0.00,WUHU216HW,2013-03-03 03:58:00,
2013-03-02 22:03:00,32.4,23.4,30.08,SE,144,2.1,3.3,69,0.00,,,0.00,WUHU216HW,2013-03-03 04:03:00,
2013-03-02 22:08:00,32.6,23.9,30.08,SSE,150,2.5,4.1,70,0.00,,,0.00,WUHU216HW,2013-03-03 04:08:00,
2013-03-02 22:13:00,33.0,24.3,30.08,SE,137,3.2,4.4,70,0.00,,,0.00,WUHU216HW,2013-03-03 04:13:00,
2013-03-02 22:18:00,33.5,24.5,30.08,SE,139,2.6,4.9,69,0.00,,,0.00,WUHU216HW,2013-03-03 04:18:00,
2013-03-02 22:23:00,33.0,23.6,30.08,SE,145,3.6,4.6,68,0.00,,,0.00,WUHU216HW,2013-03-03 04:23:00,
2013-03-02 22:28:00,32.8,23.4,30.08,SE,129,2.6,3.3,68,0.00,,,0.00,WUHU216HW,2013-03-03 04:28:00,
2013-03-02 22:33:00,32.6,23.2,30.08,SE,133,3.1,3.9,68,0.00,,,0.00,WUHU216HW,2013-03-03 04:33:00,
2013-03-02 22:38:00,32.2,22.9,30.08,SSE,152,4.5,5.4,68,0.00,,,0.00,WUHU216HW,2013-03-03 04:38:00,
2013-03-02 22:43:00,31.9,22.2,30.08,SE,143,2.8,3.6,67,0.00,,,0.00,WUHU216HW,2013-03-03 04:43:00,
2013-03-02 22:48:00,31.3,22.0,30.08,SE,141,3.1,3.9,68,0.00,,,0.00,WUHU216HW,2013-03-03 04:48:00,
2013-03-02 22:53:00,31.0,22.0,30.08,SE,145,2.6,4.1,69,0.00,,,0.00,WUHU216HW,2013-03-03 04:53:00,
2013-03-02 22:58:00,31.0,22.4,30.08,SSE,149,2.8,4.1,70,0.00,,,0.00,WUHU216HW,2013-03-03 04:58:00,
2013-03-02 23:03:00,31.0,22.4,30.08,ESE,122,3.1,3.9,70,0.00,,,0.00,WUHU216HW,2013-03-03 05:03:00,
2013-03-02 23:08:00,31.2,22.9,30.08,SE,130,3.8,3.9,71,0.00,,,0.00,WUHU216HW,2013-03-03 05:08:00,
2013-03-02 23:13:00,31.2,23.2,30.07,SE,128,3.1,3.9,72,0.00,,,0.00,WUHU216HW,2013-03-03 05:13:00,
2013-03-02 23:18:00,31.2,22.9,30.07,SE,132,3.7,3.9,71,0.00,,,0.00,WUHU216HW,2013-03-03 05:18:00,
2013-03-02 23:23:00,31.2,22.9,30.07,East,82,3.0,3.9,71,0.00,,,0.00,WUHU216HW,2013-03-03 05:23:00,
2013-03-02 23:28:00,31.2,22.9,30.07,ESE,122,3.3,3.9,71,0.00,,,0.00,WUHU216HW,2013-03-03 05:28:00,
2013-03-02 23:33:00,30.8,22.5,30.07,ESE,119,3.5,4.9,71,0.00,,,0.00,WUHU216HW,2013-03-03 05:33:00,
2013-03-02 23:38:00,30.6,22.3,30.06,SE,139,2.9,4.6,71,0.00,,,0.00,WUHU216HW,2013-03-03 05:38:00,
2013-03-02 23:43:00,30.4,22.5,30.06,SE,142,3.4,4.6,72,0.00,,,0.00,WUHU216HW,2013-03-03 05:43:00,
2013-03-02 23:48:00,30.3,22.7,30.06,SE,144,4.3,5.4,73,0.00,,,0.00,WUHU216HW,2013-03-03 05:48:00,
2013-03-02 23:53:00,30.0,22.5,30.06,SE,130,3.6,4.6,73,0.00,,,0.00,WUHU216HW,2013-03-03 05:53:00,
2013-03-02 23:58:00,29.4,21.9,30.06,SE,130,3.5,4.6,73,0.00,,,0.00,WUHU216HW,2013-03-03 05:58:00,